Time;durP1;ratioP1;P1;durP2;ratioP2;P2;SDS_P1;SDS_P2;PMS_P1;PMS_P2;Temp;Humidity;BMP_temperature;BMP_pressure;BME280_temperature;BME280_humidity;BME280_pressure;Samples;Min_cycle;Max_cycle;Signal;HPM_P1;HPM_P2
2023/08/24 00:00:16;;;;;;;5.85;2.22;;;;;;;;;;4980930;28;20030;-74
2023/08/24 00:02:42;;;;;;;4.30;1.60;;;;;;;;;;4979970;28;20023;-73
2023/08/24 00:05:08;;;;;;;6.32;2.53;;;;;;;;;;4991649;28;20038;-74
2023/08/24 00:07:34;;;;;;;2.88;1.45;;;;;;;;;;4981028;28;20571;-73
2023/08/24 00:10:00;;;;;;;6.95;2.05;;;;;;;;;;4980402;28;20062;-73
2023/08/24 00:12:26;;;;;;;4.60;1.73;;;;;;;;;;4978130;28;20033;-73
2023/08/24 00:14:52;;;;;;;3.45;2.10;;;;;;;;;;5000361;28;20056;-73
2023/08/24 00:17:19;;;;;;;5.97;1.88;;;;;;;;;;4985134;28;20035;-73
2023/08/24 00:19:46;;;;;;;5.55;2.17;;;;;;;;;;5002974;28;20042;-74
2023/08/24 00:22:12;;;;;;;5.35;2.65;;;;;;;;;;4972821;28;20027;-72
2023/08/24 00:24:38;;;;;;;6.90;2.45;;;;;;;;;;4991998;28;20037;-73
2023/08/24 00:27:04;;;;;;;4.32;2.03;;;;;;;;;;4980411;28;20031;-72
2023/08/24 00:29:30;;;;;;;5.65;2.47;;;;;;;;;;4982891;28;20113;-73
2023/08/24 00:31:57;;;;;;;4.38;2.58;;;;;;;;;;4982676;28;20555;-74
2023/08/24 00:34:23;;;;;;;4.30;2.45;;;;;;;;;;4984378;28;20085;-72
2023/08/24 00:36:49;;;;;;;4.70;2.90;;;;;;;;;;4982876;28;20519;-73
2023/08/24 00:39:16;;;;;;;8.40;2.95;;;;;;;;;;4984413;28;20035;-73
2023/08/24 00:41:42;;;;;;;5.80;2.90;;;;;;;;;;4980581;28;20026;-73
2023/08/24 00:44:08;;;;;;;3.72;2.65;;;;;;;;;;4980575;28;20117;-73
2023/08/24 00:46:35;;;;;;;6.15;3.28;;;;;;;;;;4983601;28;20118;-73
2023/08/24 00:49:01;;;;;;;6.28;3.30;;;;;;;;;;4991103;28;20044;-72
2023/08/24 00:51:27;;;;;;;11.07;3.28;;;;;;;;;;4989580;28;20038;-73
2023/08/24 00:53:53;;;;;;;4.57;3.75;;;;;;;;;;4998558;28;20376;-74
2023/08/24 00:56:24;;;;;;;9.60;3.55;;;;;;;;;;4986171;28;20041;-73
2023/08/24 00:58:50;;;;;;;6.13;4.13;;;;;;;;;;4977158;28;20440;-74
2023/08/24 01:01:17;;;;;;;5.97;3.50;;;;;;;;;;4987301;28;20162;-73
2023/08/24 01:03:44;;;;;;;6.07;3.80;;;;;;;;;;4993883;28;20029;-73
2023/08/24 01:06:09;;;;;;;8.40;3.88;;;;;;;;;;4988859;28;20065;-73
2023/08/24 01:08:36;;;;;;;7.25;3.00;;;;;;;;;;4989105;28;20523;-73
2023/08/24 01:11:05;;;;;;;5.03;3.10;;;;;;;;;;4990659;28;20708;-72
2023/08/24 01:13:41;;;;;;;5.93;2.90;;;;;;;;;;4981918;28;20169;-72
2023/08/24 01:16:26;;;;;;;6.65;3.17;;;;;;;;;;4991683;28;20026;-74
2023/08/24 01:18:55;;;;;;;5.45;2.72;;;;;;;;;;4980083;28;20031;-73
2023/08/24 01:21:21;;;;;;;5.70;2.50;;;;;;;;;;4993830;28;20093;-72
2023/08/24 01:23:47;;;;;;;5.20;2.67;;;;;;;;;;4986247;28;20038;-73
2023/08/24 01:26:13;;;;;;;4.13;2.72;;;;;;;;;;4988434;28;20028;-72
2023/08/24 01:28:40;;;;;;;4.47;2.78;;;;;;;;;;4987890;28;20156;-73
2023/08/24 01:31:07;;;;;;;8.68;2.95;;;;;;;;;;5008154;28;20034;-73
2023/08/24 01:33:33;;;;;;;9.52;3.15;;;;;;;;;;4989715;28;20056;-73
2023/08/24 01:35:59;;;;;;;9.07;3.90;;;;;;;;;;4986765;28;20038;-72
2023/08/24 01:38:26;;;;;;;10.68;4.63;;;;;;;;;;4980879;28;20035;-73
2023/08/24 01:40:52;;;;;;;6.05;3.72;;;;;;;;;;4990086;28;20034;-73
2023/08/24 01:43:19;;;;;;;7.07;3.78;;;;;;;;;;4989717;28;20070;-73
2023/08/24 01:45:45;;;;;;;11.25;3.97;;;;;;;;;;4993592;28;20030;-74
2023/08/24 01:48:11;;;;;;;9.93;4.30;;;;;;;;;;4988601;28;20624;-73
2023/08/24 01:50:38;;;;;;;7.53;4.20;;;;;;;;;;4987390;28;20065;-73
2023/08/24 01:53:04;;;;;;;7.22;4.10;;;;;;;;;;4996439;28;20117;-74
2023/08/24 01:55:30;;;;;;;9.93;4.95;;;;;;;;;;4982550;28;20134;-73
2023/08/24 01:57:57;;;;;;;9.68;4.80;;;;;;;;;;4994536;28;20071;-73
2023/08/24 02:00:23;;;;;;;12.30;4.63;;;;;;;;;;4996520;28;20034;-73
2023/08/24 02:02:49;;;;;;;8.30;4.13;;;;;;;;;;4984487;28;20042;-72
2023/08/24 02:05:15;;;;;;;7.60;4.13;;;;;;;;;;4991910;28;20121;-72
2023/08/24 02:07:41;;;;;;;10.63;4.43;;;;;;;;;;4985607;28;20088;-73
2023/08/24 02:10:07;;;;;;;9.70;3.80;;;;;;;;;;4985537;28;20441;-74
2023/08/24 02:12:33;;;;;;;6.57;3.88;;;;;;;;;;4991313;28;20030;-73
2023/08/24 02:14:59;;;;;;;7.57;3.88;;;;;;;;;;4990935;28;20543;-72
2023/08/24 02:17:26;;;;;;;8.65;3.92;;;;;;;;;;4988491;28;20027;-73
2023/08/24 02:19:52;;;;;;;6.78;3.90;;;;;;;;;;4983023;28;20181;-73
2023/08/24 02:22:18;;;;;;;6.72;4.05;;;;;;;;;;4987261;28;20483;-73
2023/08/24 02:24:44;;;;;;;10.73;4.63;;;;;;;;;;4988497;28;20038;-73
2023/08/24 02:27:10;;;;;;;8.45;4.00;;;;;;;;;;4989113;28;20030;-73
2023/08/24 02:29:37;;;;;;;7.13;3.65;;;;;;;;;;4988777;28;20177;-73
2023/08/24 02:32:03;;;;;;;6.05;3.42;;;;;;;;;;4990106;28;20026;-72
2023/08/24 02:34:29;;;;;;;8.30;3.92;;;;;;;;;;4983913;28;20045;-72
2023/08/24 02:36:55;;;;;;;6.53;3.22;;;;;;;;;;4991813;28;20404;-73
2023/08/24 02:39:21;;;;;;;5.22;3.50;;;;;;;;;;4979270;28;20472;-73
2023/08/24 02:41:47;;;;;;;18.67;4.00;;;;;;;;;;4991166;28;20045;-73
2023/08/24 02:44:13;;;;;;;12.02;3.50;;;;;;;;;;4984188;28;20041;-74
2023/08/24 02:46:39;;;;;;;5.45;3.38;;;;;;;;;;4984487;28;20137;-74
2023/08/24 02:49:05;;;;;;;6.22;3.50;;;;;;;;;;4988278;28;20110;-72
2023/08/24 02:51:32;;;;;;;9.38;3.90;;;;;;;;;;4983800;28;20687;-74
2023/08/24 02:53:58;;;;;;;8.02;3.80;;;;;;;;;;4996795;28;20723;-73
2023/08/24 02:56:24;;;;;;;7.00;3.75;;;;;;;;;;4995342;28;20479;-74
2023/08/24 02:58:50;;;;;;;8.68;3.75;;;;;;;;;;4997434;28;20096;-73
2023/08/24 03:01:16;;;;;;;6.93;3.72;;;;;;;;;;4989524;28;20046;-73
2023/08/24 03:03:42;;;;;;;6.40;3.55;;;;;;;;;;4987319;28;20504;-72
2023/08/24 03:06:09;;;;;;;5.55;3.55;;;;;;;;;;4993555;28;20061;-73
2023/08/24 03:08:35;;;;;;;10.38;4.90;;;;;;;;;;4982407;28;20057;-72
2023/08/24 03:11:02;;;;;;;8.90;4.30;;;;;;;;;;4983346;28;20117;-72
2023/08/24 03:13:30;;;;;;;7.38;4.50;;;;;;;;;;4988964;28;20038;-72
2023/08/24 03:15:56;;;;;;;9.23;4.40;;;;;;;;;;4991316;28;20088;-73
2023/08/24 03:18:22;;;;;;;10.82;5.97;;;;;;;;;;4979291;28;20034;-73
2023/08/24 03:20:49;;;;;;;9.88;4.80;;;;;;;;;;4985402;28;20127;-73
2023/08/24 03:23:18;;;;;;;9.35;4.78;;;;;;;;;;5002588;28;20030;-72
2023/08/24 03:25:44;;;;;;;11.57;5.50;;;;;;;;;;4991856;28;20030;-73
2023/08/24 03:28:10;;;;;;;11.30;5.25;;;;;;;;;;4981441;28;20046;-74
2023/08/24 03:30:37;;;;;;;8.70;5.13;;;;;;;;;;4995057;28;20030;-73
2023/08/24 03:33:04;;;;;;;12.20;5.20;;;;;;;;;;4980151;28;20037;-72
2023/08/24 03:35:31;;;;;;;9.75;4.88;;;;;;;;;;4973651;28;20515;-71
2023/08/24 03:37:57;;;;;;;6.35;5.15;;;;;;;;;;4996618;28;20117;-71
2023/08/24 03:40:23;;;;;;;9.25;4.85;;;;;;;;;;4987637;28;20026;-72
2023/08/24 03:42:49;;;;;;;9.52;4.35;;;;;;;;;;4983439;28;20420;-72
2023/08/24 03:45:15;;;;;;;7.90;4.45;;;;;;;;;;4989819;28;20038;-71
2023/08/24 03:47:41;;;;;;;8.15;3.70;;;;;;;;;;4987737;28;20653;-71
2023/08/24 03:50:07;;;;;;;6.72;3.60;;;;;;;;;;4981126;28;20026;-72
2023/08/24 03:52:33;;;;;;;7.25;4.43;;;;;;;;;;4988328;28;20026;-71
2023/08/24 03:55:00;;;;;;;9.40;4.20;;;;;;;;;;4993043;28;20072;-73
2023/08/24 03:57:26;;;;;;;7.75;4.43;;;;;;;;;;4986915;28;20041;-72
2023/08/24 03:59:52;;;;;;;9.30;4.15;;;;;;;;;;4985345;28;20084;-73
2023/08/24 04:02:18;;;;;;;8.57;5.13;;;;;;;;;;4986568;28;20038;-73
2023/08/24 04:04:44;;;;;;;7.68;4.75;;;;;;;;;;4982161;28;20107;-72
2023/08/24 04:07:10;;;;;;;9.02;4.93;;;;;;;;;;4983858;28;20026;-72
2023/08/24 04:09:36;;;;;;;10.85;4.25;;;;;;;;;;4993621;28;20373;-72
2023/08/24 04:12:02;;;;;;;9.27;5.20;;;;;;;;;;4982721;28;20026;-72
2023/08/24 04:14:28;;;;;;;10.60;5.32;;;;;;;;;;4981508;28;20054;-72
2023/08/24 04:16:54;;;;;;;6.47;4.43;;;;;;;;;;4991011;28;20041;-72
2023/08/24 04:19:20;;;;;;;10.13;4.85;;;;;;;;;;4977095;28;20392;-71
2023/08/24 04:21:46;;;;;;;8.60;4.65;;;;;;;;;;4990114;28;20592;-73
2023/08/24 04:24:12;;;;;;;10.27;4.97;;;;;;;;;;4992481;28;20042;-71
2023/08/24 04:26:38;;;;;;;10.90;4.85;;;;;;;;;;4987672;28;20035;-72
2023/08/24 04:29:04;;;;;;;8.93;4.78;;;;;;;;;;4991897;28;20085;-72
2023/08/24 04:31:30;;;;;;;13.55;5.90;;;;;;;;;;4984648;28;20070;-72
2023/08/24 04:33:56;;;;;;;9.98;5.38;;;;;;;;;;4989698;28;20064;-72
2023/08/24 04:36:22;;;;;;;8.80;5.68;;;;;;;;;;4983347;28;20047;-73
2023/08/24 04:38:48;;;;;;;7.72;5.13;;;;;;;;;;4985886;28;20060;-72
2023/08/24 04:41:14;;;;;;;9.32;5.68;;;;;;;;;;4995825;28;20032;-71
2023/08/24 04:43:40;;;;;;;7.20;5.53;;;;;;;;;;4986224;28;20054;-73
2023/08/24 04:46:06;;;;;;;11.68;6.80;;;;;;;;;;4986845;28;20022;-72
2023/08/24 04:48:35;;;;;;;11.05;5.05;;;;;;;;;;4987949;28;20100;-71
2023/08/24 04:51:04;;;;;;;8.20;5.32;;;;;;;;;;4991362;28;20031;-72
2023/08/24 04:53:30;;;;;;;12.95;5.72;;;;;;;;;;4988820;28;20439;-71
2023/08/24 04:55:56;;;;;;;11.25;5.22;;;;;;;;;;4987944;28;20026;-74
2023/08/24 04:58:23;;;;;;;6.97;4.90;;;;;;;;;;4985894;28;20380;-75
2023/08/24 05:00:49;;;;;;;8.38;5.20;;;;;;;;;;4985428;28;20023;-74
2023/08/24 05:03:15;;;;;;;12.25;4.82;;;;;;;;;;4987447;28;20030;-74
2023/08/24 05:05:41;;;;;;;207.75;138.45;;;;;;;;;;4990263;28;20022;-80
2023/08/24 05:08:10;;;;;;;235.18;133.82;;;;;;;;;;4991465;28;20042;-80
2023/08/24 05:10:36;;;;;;;18.00;12.32;;;;;;;;;;4980484;28;20543;-79
2023/08/24 05:13:02;;;;;;;12.18;7.80;;;;;;;;;;4998406;28;20062;-78
2023/08/24 05:15:28;;;;;;;8.93;5.82;;;;;;;;;;4992868;28;20031;-80
2023/08/24 05:17:56;;;;;;;13.25;4.72;;;;;;;;;;4988253;28;20034;-74
2023/08/24 05:20:23;;;;;;;9.00;4.40;;;;;;;;;;4988766;28;20033;-74
2023/08/24 05:22:49;;;;;;;9.30;3.97;;;;;;;;;;4987248;28;20109;-75
2023/08/24 05:25:18;;;;;;;8.40;4.07;;;;;;;;;;4984517;28;20495;-75
2023/08/24 05:27:44;;;;;;;103.93;68.03;;;;;;;;;;4992098;28;20030;-76
2023/08/24 05:30:10;;;;;;;13.98;8.80;;;;;;;;;;4996403;28;20392;-75
2023/08/24 05:32:38;;;;;;;14.95;6.38;;;;;;;;;;4986486;28;20039;-79
2023/08/24 05:35:04;;;;;;;11.05;4.97;;;;;;;;;;4987353;28;20077;-75
2023/08/24 05:37:30;;;;;;;10.25;4.97;;;;;;;;;;4990092;28;20105;-75
2023/08/24 05:39:56;;;;;;;13.48;4.30;;;;;;;;;;4988546;28;20461;-75
2023/08/24 05:42:22;;;;;;;11.15;4.78;;;;;;;;;;4981939;28;20022;-75
2023/08/24 05:44:48;;;;;;;15.18;4.57;;;;;;;;;;4989475;28;20215;-74
2023/08/24 05:47:14;;;;;;;14.55;5.50;;;;;;;;;;4984574;28;20400;-74
2023/08/24 05:49:40;;;;;;;10.90;5.35;;;;;;;;;;4990917;28;20030;-76
2023/08/24 05:52:06;;;;;;;7.43;4.40;;;;;;;;;;4983824;28;20121;-74
2023/08/24 05:54:32;;;;;;;10.48;4.72;;;;;;;;;;4994828;28;20566;-74
2023/08/24 05:57:01;;;;;;;10.25;4.95;;;;;;;;;;4983240;28;20026;-73
2023/08/24 05:59:27;;;;;;;9.65;4.32;;;;;;;;;;4985307;28;20129;-74
2023/08/24 06:01:53;;;;;;;8.55;4.20;;;;;;;;;;4988621;28;20042;-75
2023/08/24 06:04:19;;;;;;;11.45;5.07;;;;;;;;;;4989398;28;20100;-73
2023/08/24 06:06:45;;;;;;;7.38;4.35;;;;;;;;;;4987604;28;20488;-74
2023/08/24 06:09:11;;;;;;;11.35;5.07;;;;;;;;;;4986977;28;20034;-75
2023/08/24 06:11:38;;;;;;;10.43;4.57;;;;;;;;;;4983254;28;20062;-75
2023/08/24 06:14:04;;;;;;;6.70;3.88;;;;;;;;;;4985810;28;20042;-75
2023/08/24 06:16:30;;;;;;;8.48;4.28;;;;;;;;;;4989125;28;20468;-74
2023/08/24 06:18:56;;;;;;;7.78;3.92;;;;;;;;;;4981679;28;20452;-74
2023/08/24 06:21:22;;;;;;;9.63;3.95;;;;;;;;;;4995631;28;20403;-76
2023/08/24 06:23:48;;;;;;;6.40;3.20;;;;;;;;;;4977111;28;20266;-76
2023/08/24 06:26:14;;;;;;;7.50;3.95;;;;;;;;;;4987541;28;20118;-76
2023/08/24 06:28:41;;;;;;;26.80;20.13;;;;;;;;;;4980655;28;20054;-79
2023/08/24 06:31:07;;;;;;;11.40;4.88;;;;;;;;;;4982573;28;20088;-83
2023/08/24 06:33:34;;;;;;;10.43;5.45;;;;;;;;;;4980918;28;20134;-76
2023/08/24 06:36:00;;;;;;;13.23;6.00;;;;;;;;;;4974745;28;20476;-76
2023/08/24 06:38:26;;;;;;;8.50;3.50;;;;;;;;;;4984874;28;20076;-79
2023/08/24 06:40:52;;;;;;;6.38;2.97;;;;;;;;;;4989137;28;20046;-77
2023/08/24 06:43:18;;;;;;;6.38;2.53;;;;;;;;;;4995580;28;20038;-74
2023/08/24 06:45:44;;;;;;;9.32;2.80;;;;;;;;;;4990697;28;20035;-73
2023/08/24 06:48:10;;;;;;;9.13;3.00;;;;;;;;;;4984295;28;20058;-74
2023/08/24 06:50:37;;;;;;;8.52;3.47;;;;;;;;;;4992673;28;20357;-73
2023/08/24 06:53:04;;;;;;;5.75;2.20;;;;;;;;;;4995337;28;20034;-73
2023/08/24 06:55:30;;;;;;;6.50;2.42;;;;;;;;;;4991065;28;20117;-73
2023/08/24 06:57:56;;;;;;;6.68;2.85;;;;;;;;;;4988270;28;20113;-73
2023/08/24 07:00:22;;;;;;;6.32;2.65;;;;;;;;;;4983094;28;20035;-73
2023/08/24 07:02:49;;;;;;;134.75;90.70;;;;;;;;;;4991182;28;21036;-78
2023/08/24 07:05:18;;;;;;;16.50;9.32;;;;;;;;;;4983402;28;20035;-77
2023/08/24 07:07:44;;;;;;;11.15;4.95;;;;;;;;;;4987204;28;20023;-75
2023/08/24 07:10:10;;;;;;;5.57;2.42;;;;;;;;;;4985210;28;20119;-73
2023/08/24 07:12:37;;;;;;;4.72;2.50;;;;;;;;;;4994895;28;20042;-74
2023/08/24 07:15:04;;;;;;;10.23;2.50;;;;;;;;;;5001837;28;20034;-72
2023/08/24 07:17:30;;;;;;;5.45;2.10;;;;;;;;;;4980375;28;20134;-72
2023/08/24 07:19:56;;;;;;;5.38;2.58;;;;;;;;;;4990524;28;20092;-78
2023/08/24 07:22:22;;;;;;;7.13;2.97;;;;;;;;;;4985257;28;20032;-77
2023/08/24 07:24:52;;;;;;;7.60;3.13;;;;;;;;;;5003881;28;20045;-74
2023/08/24 07:27:18;;;;;;;6.28;2.80;;;;;;;;;;4991510;28;20088;-75
2023/08/24 07:29:45;;;;;;;6.15;2.80;;;;;;;;;;4982416;28;20067;-75
2023/08/24 07:32:11;;;;;;;9.10;3.75;;;;;;;;;;4987437;28;20033;-75
2023/08/24 07:34:37;;;;;;;7.30;3.65;;;;;;;;;;4982730;28;20030;-75
2023/08/24 07:37:03;;;;;;;8.55;3.42;;;;;;;;;;4987093;28;20042;-75
2023/08/24 07:39:29;;;;;;;10.88;4.15;;;;;;;;;;4986537;28;20109;-75
2023/08/24 07:41:55;;;;;;;8.85;4.10;;;;;;;;;;4980697;28;20495;-75
2023/08/24 07:44:21;;;;;;;10.38;3.42;;;;;;;;;;4988955;28;20112;-74
2023/08/24 07:46:49;;;;;;;5.97;4.05;;;;;;;;;;4980557;28;20030;-75
2023/08/24 07:49:15;;;;;;;7.38;3.63;;;;;;;;;;4987827;28;20387;-74
2023/08/24 07:51:42;;;;;;;9.05;4.53;;;;;;;;;;4987118;28;20088;-75
2023/08/24 07:54:09;;;;;;;6.55;3.72;;;;;;;;;;4975389;28;20452;-75
2023/08/24 07:56:36;;;;;;;9.27;3.67;;;;;;;;;;4975173;28;20080;-75
2023/08/24 07:59:02;;;;;;;10.23;5.03;;;;;;;;;;4983632;28;20026;-75
2023/08/24 08:01:28;;;;;;;9.30;4.38;;;;;;;;;;4982170;28;20042;-78
2023/08/24 08:03:54;;;;;;;8.45;4.60;;;;;;;;;;4995629;28;20529;-79
2023/08/24 08:06:21;;;;;;;7.97;3.95;;;;;;;;;;4979138;28;20010;-77
2023/08/24 08:08:50;;;;;;;9.52;4.40;;;;;;;;;;4979394;28;20412;-79
2023/08/24 08:11:16;;;;;;;9.13;4.53;;;;;;;;;;4987317;28;20026;-79
2023/08/24 08:13:42;;;;;;;9.20;3.35;;;;;;;;;;4989573;28;20058;-81
2023/08/24 08:16:08;;;;;;;6.95;3.00;;;;;;;;;;4981816;28;20434;-76
2023/08/24 08:18:35;;;;;;;22.33;16.60;;;;;;;;;;4991318;28;20089;-76
2023/08/24 08:21:02;;;;;;;8.70;4.78;;;;;;;;;;4974375;28;20061;-74
2023/08/24 08:23:29;;;;;;;8.70;3.97;;;;;;;;;;4983315;28;20113;-75
2023/08/24 08:25:55;;;;;;;7.85;3.58;;;;;;;;;;4983823;28;20081;-76
2023/08/24 08:28:21;;;;;;;10.15;3.60;;;;;;;;;;4985774;28;20062;-74
2023/08/24 08:30:49;;;;;;;11.13;3.90;;;;;;;;;;4979765;28;20487;-75
2023/08/24 08:33:15;;;;;;;8.50;3.60;;;;;;;;;;4987916;28;20037;-75
2023/08/24 08:35:41;;;;;;;7.72;3.65;;;;;;;;;;4977432;28;20436;-75
2023/08/24 08:38:07;;;;;;;8.45;4.05;;;;;;;;;;4980454;28;20050;-75
2023/08/24 08:40:36;;;;;;;9.40;4.13;;;;;;;;;;4982068;28;20037;-74
2023/08/24 08:43:02;;;;;;;10.52;3.70;;;;;;;;;;4987137;28;20105;-75
2023/08/24 08:45:29;;;;;;;8.02;3.38;;;;;;;;;;4980673;28;20426;-74
2023/08/24 08:48:02;;;;;;;10.45;3.78;;;;;;;;;;4986973;28;20035;-74
2023/08/24 08:50:29;;;;;;;10.32;3.38;;;;;;;;;;4978773;28;20102;-74
2023/08/24 08:52:57;;;;;;;10.20;2.88;;;;;;;;;;4992033;28;20025;-75
2023/08/24 08:55:23;;;;;;;8.45;3.25;;;;;;;;;;4992629;28;20026;-74
2023/08/24 08:57:50;;;;;;;6.47;3.55;;;;;;;;;;4979445;28;20035;-76
2023/08/24 09:00:17;;;;;;;9.15;3.25;;;;;;;;;;4984932;28;20365;-74
2023/08/24 09:02:45;;;;;;;8.13;3.00;;;;;;;;;;4985681;28;20122;-74
2023/08/24 09:05:11;;;;;;;12.25;8.82;;;;;;;;;;4984508;28;20034;-75
2023/08/24 09:07:39;;;;;;;167.63;118.03;;;;;;;;;;4977703;28;20039;-75
2023/08/24 09:10:07;;;;;;;123.00;88.15;;;;;;;;;;4980643;28;20057;-74
2023/08/24 09:12:33;;;;;;;10.07;5.20;;;;;;;;;;4987307;28;20031;-74
2023/08/24 09:14:59;;;;;;;8.73;4.28;;;;;;;;;;4988447;28;20062;-74
2023/08/24 09:17:25;;;;;;;7.07;3.30;;;;;;;;;;4987801;28;20476;-74
2023/08/24 09:19:51;;;;;;;7.68;3.30;;;;;;;;;;4992714;28;20081;-77
2023/08/24 09:22:17;;;;;;;5.57;3.55;;;;;;;;;;4988380;28;20433;-76
2023/08/24 09:24:45;;;;;;;8.23;3.45;;;;;;;;;;4987379;28;20377;-76
2023/08/24 09:27:21;;;;;;;10.98;4.53;;;;;;;;;;4983764;28;20483;-77
2023/08/24 09:29:50;;;;;;;8.20;3.92;;;;;;;;;;4992903;28;20113;-77
2023/08/24 09:32:16;;;;;;;8.75;3.63;;;;;;;;;;4980466;28;20038;-77
2023/08/24 09:34:43;;;;;;;13.73;4.32;;;;;;;;;;4984439;28;20496;-76
2023/08/24 09:37:15;;;;;;;10.93;3.90;;;;;;;;;;4993303;28;20323;-76
2023/08/24 09:39:42;;;;;;;9.40;3.90;;;;;;;;;;4981992;28;20038;-77
2023/08/24 09:42:08;;;;;;;8.07;4.07;;;;;;;;;;4993591;28;21621;-75
2023/08/24 09:44:34;;;;;;;9.50;4.50;;;;;;;;;;4985468;28;20555;-76
2023/08/24 09:47:00;;;;;;;11.77;3.80;;;;;;;;;;4980579;28;20062;-74
2023/08/24 09:49:28;;;;;;;10.35;4.82;;;;;;;;;;4984815;28;20062;-76
2023/08/24 09:51:58;;;;;;;8.00;4.38;;;;;;;;;;4988216;28;20654;-75
2023/08/24 09:54:27;;;;;;;9.95;4.03;;;;;;;;;;4986858;28;20464;-76
2023/08/24 09:56:56;;;;;;;7.63;4.00;;;;;;;;;;4987001;28;20285;-74
2023/08/24 09:59:24;;;;;;;6.95;3.42;;;;;;;;;;4984270;28;20031;-75
2023/08/24 10:01:51;;;;;;;11.30;3.80;;;;;;;;;;4988601;28;20026;-76
2023/08/24 10:04:29;;;;;;;10.95;4.05;;;;;;;;;;4983615;28;20087;-76
2023/08/24 10:07:11;;;;;;;15.18;4.95;;;;;;;;;;4990263;28;20049;-74
2023/08/24 10:09:50;;;;;;;9.80;4.75;;;;;;;;;;4994285;28;20050;-74
2023/08/24 10:12:19;;;;;;;11.45;4.82;;;;;;;;;;4990112;28;20058;-74
2023/08/24 10:14:51;;;;;;;8.77;5.40;;;;;;;;;;4983434;28;20038;-74
2023/08/24 10:17:17;;;;;;;;;;;;;;;;;;4983015;28;20476;-76
2023/08/24 10:19:44;;;;;;;15.25;4.72;;;;;;;;;;4987180;28;19914;-76
2023/08/24 10:22:10;;;;;;;7.90;4.57;;;;;;;;;;4993512;28;20522;-75
2023/08/24 10:24:36;;;;;;;10.05;4.88;;;;;;;;;;4996483;28;20082;-74
2023/08/24 10:27:04;;;;;;;9.30;5.45;;;;;;;;;;4988083;28;20030;-75
2023/08/24 10:29:30;;;;;;;9.80;5.15;;;;;;;;;;4988740;28;20069;-73
2023/08/24 10:31:57;;;;;;;11.13;5.28;;;;;;;;;;4985265;28;20066;-73
2023/08/24 10:34:23;;;;;;;10.38;5.32;;;;;;;;;;4979076;28;20504;-74
2023/08/24 10:36:49;;;;;;;15.05;5.43;;;;;;;;;;4987703;28;20059;-75
2023/08/24 10:39:16;;;;;;;9.27;5.00;;;;;;;;;;4991480;28;20057;-74
2023/08/24 10:41:52;;;;;;;11.60;6.75;;;;;;;;;;4986297;28;20061;-75
2023/08/24 10:44:22;;;;;;;12.85;6.15;;;;;;;;;;4995432;28;20038;-74
2023/08/24 10:47:07;;;;;;;11.88;5.90;;;;;;;;;;4987227;28;20476;-78
2023/08/24 10:49:33;;;;;;;14.57;7.22;;;;;;;;;;4979998;28;20089;-74
2023/08/24 10:52:17;;;;;;;13.15;6.47;;;;;;;;;;5003337;28;20030;-75
2023/08/24 10:54:45;;;;;;;10.80;6.47;;;;;;;;;;4985102;28;20134;-77
2023/08/24 10:57:18;;;;;;;12.07;6.63;;;;;;;;;;4985406;28;20444;-77
2023/08/24 10:59:44;;;;;;;11.77;7.25;;;;;;;;;;4987287;28;20037;-77
2023/08/24 11:02:19;;;;;;;10.88;6.55;;;;;;;;;;4998187;28;20038;-76
2023/08/24 11:05:04;;;;;;;17.00;7.88;;;;;;;;;;4973723;28;20048;-77
2023/08/24 11:07:30;;;;;;;12.85;7.63;;;;;;;;;;4985451;28;20041;-75
2023/08/24 11:09:56;;;;;;;18.52;7.90;;;;;;;;;;4988973;28;20038;-75
2023/08/24 11:12:22;;;;;;;19.40;8.38;;;;;;;;;;4983663;28;20038;-76
2023/08/24 11:14:54;;;;;;;12.73;7.03;;;;;;;;;;4991174;28;20044;-76
2023/08/24 11:17:20;;;;;;;9.27;7.03;;;;;;;;;;4983076;28;20026;-75
2023/08/24 11:19:50;;;;;;;13.65;7.65;;;;;;;;;;4987119;28;20042;-75
2023/08/24 11:22:17;;;;;;;11.82;8.00;;;;;;;;;;4983032;28;20042;-75
2023/08/24 11:24:43;;;;;;;13.95;8.15;;;;;;;;;;4987473;28;20034;-76
2023/08/24 11:27:09;;;;;;;15.55;8.07;;;;;;;;;;4988288;28;20049;-75
2023/08/24 11:29:35;;;;;;;18.85;8.63;;;;;;;;;;4987829;28;20122;-75
2023/08/24 11:32:02;;;;;;;15.27;8.48;;;;;;;;;;4978397;28;20034;-75
2023/08/24 11:34:28;;;;;;;13.30;8.25;;;;;;;;;;4984388;28;20455;-75
2023/08/24 11:36:54;;;;;;;13.25;8.40;;;;;;;;;;4983638;28;20067;-74
2023/08/24 11:39:22;;;;;;;14.07;9.10;;;;;;;;;;4987521;28;20034;-75
2023/08/24 11:42:04;;;;;;;14.07;9.82;;;;;;;;;;4988040;28;20065;-74
2023/08/24 11:44:45;;;;;;;16.58;9.10;;;;;;;;;;4978373;28;20041;-76
2023/08/24 11:47:12;;;;;;;17.15;9.48;;;;;;;;;;4985038;28;20030;-76
2023/08/24 11:49:38;;;;;;;15.63;9.93;;;;;;;;;;4986569;28;20062;-75
2023/08/24 11:52:05;;;;;;;18.80;9.55;;;;;;;;;;4977252;28;20030;-75
2023/08/24 11:54:34;;;;;;;14.25;10.65;;;;;;;;;;4984730;28;20126;-76
2023/08/24 11:57:00;;;;;;;15.63;10.32;;;;;;;;;;4987376;28;20039;-75
2023/08/24 11:59:26;;;;;;;13.98;9.38;;;;;;;;;;4985511;28;20053;-75
2023/08/24 12:01:53;;;;;;;18.08;9.95;;;;;;;;;;4987639;28;20034;-75
2023/08/24 12:04:19;;;;;;;14.30;10.35;;;;;;;;;;4988869;28;20055;-75
2023/08/24 12:06:45;;;;;;;16.45;10.95;;;;;;;;;;4982985;28;20058;-75
2023/08/24 12:09:11;;;;;;;13.60;10.00;;;;;;;;;;4986736;28;20075;-76
2023/08/24 12:11:38;;;;;;;15.00;8.93;;;;;;;;;;4985933;28;20084;-75
2023/08/24 12:14:06;;;;;;;14.05;9.43;;;;;;;;;;4985906;28;20058;-75
2023/08/24 12:16:33;;;;;;;18.27;10.93;;;;;;;;;;4978231;28;20392;-74
2023/08/24 12:19:03;;;;;;;16.92;10.75;;;;;;;;;;4985175;28;20069;-75
2023/08/24 12:21:29;;;;;;;18.40;11.30;;;;;;;;;;4980233;28;20484;-74
2023/08/24 12:24:05;;;;;;;16.10;11.68;;;;;;;;;;4984140;28;20534;-75
2023/08/24 12:26:32;;;;;;;12.90;10.30;;;;;;;;;;4975299;28;20106;-74
2023/08/24 12:29:02;;;;;;;17.52;11.70;;;;;;;;;;4985870;28;20041;-74
2023/08/24 12:31:29;;;;;;;13.15;10.05;;;;;;;;;;4981829;28;20040;-75
2023/08/24 12:34:01;;;;;;;18.67;11.23;;;;;;;;;;4983253;28;20051;-75
2023/08/24 12:36:27;;;;;;;13.18;10.35;;;;;;;;;;4980749;28;20084;-74
2023/08/24 12:38:53;;;;;;;17.80;11.77;;;;;;;;;;4987222;28;20128;-75
2023/08/24 12:41:19;;;;;;;16.25;12.02;;;;;;;;;;4986476;28;20381;-75
2023/08/24 12:43:45;;;;;;;15.77;12.23;;;;;;;;;;4984443;28;20058;-75
2023/08/24 12:46:11;;;;;;;16.73;12.43;;;;;;;;;;4985727;28;20502;-75
2023/08/24 12:48:37;;;;;;;17.20;10.93;;;;;;;;;;4990628;28;20113;-76
2023/08/24 12:51:03;;;;;;;15.73;12.00;;;;;;;;;;4991024;28;20196;-75
2023/08/24 12:53:30;;;;;;;19.77;11.30;;;;;;;;;;4983677;28;20069;-77
2023/08/24 12:55:56;;;;;;;17.63;12.60;;;;;;;;;;4977455;28;20050;-75
2023/08/24 12:58:22;;;;;;;15.90;10.93;;;;;;;;;;4989390;28;20403;-77
2023/08/24 13:00:48;;;;;;;23.20;12.10;;;;;;;;;;4993020;28;20030;-75
2023/08/24 13:03:14;;;;;;;16.00;11.20;;;;;;;;;;4988043;28;20037;-79
2023/08/24 13:05:40;;;;;;;18.50;14.07;;;;;;;;;;4988120;28;20042;-77
2023/08/24 13:08:06;;;;;;;19.58;12.50;;;;;;;;;;4989617;28;20026;-77
2023/08/24 13:10:33;;;;;;;13.35;11.50;;;;;;;;;;4976603;28;20054;-77
2023/08/24 13:12:59;;;;;;;16.15;12.35;;;;;;;;;;4988117;28;20571;-76
2023/08/24 13:15:26;;;;;;;17.40;12.23;;;;;;;;;;4986319;28;20117;-76
2023/08/24 13:17:52;;;;;;;14.77;11.45;;;;;;;;;;4989078;28;20499;-76
2023/08/24 13:20:18;;;;;;;16.55;11.25;;;;;;;;;;4995168;28;20092;-76
2023/08/24 13:22:44;;;;;;;13.32;11.45;;;;;;;;;;4987995;28;20046;-75
2023/08/24 13:25:10;;;;;;;17.83;11.65;;;;;;;;;;4994536;28;20039;-77
2023/08/24 13:27:36;;;;;;;21.23;12.65;;;;;;;;;;5000479;28;20037;-73
2023/08/24 13:30:02;;;;;;;14.52;11.13;;;;;;;;;;4983486;28;20031;-74
2023/08/24 13:32:29;;;;;;;16.15;11.55;;;;;;;;;;4997632;28;20030;-73
2023/08/24 13:34:55;;;;;;;12.27;10.80;;;;;;;;;;4985532;28;20042;-74
2023/08/24 13:37:22;;;;;;;18.60;11.32;;;;;;;;;;4988025;28;20058;-74
2023/08/24 13:39:48;;;;;;;13.40;11.70;;;;;;;;;;4990241;28;20072;-74
2023/08/24 13:42:14;;;;;;;14.75;10.35;;;;;;;;;;4988152;28;20026;-74
2023/08/24 13:44:40;;;;;;;13.93;11.38;;;;;;;;;;4988789;28;20477;-74
2023/08/24 13:47:06;;;;;;;14.60;10.55;;;;;;;;;;4994673;28;20164;-74
2023/08/24 13:49:32;;;;;;;12.93;11.05;;;;;;;;;;4987778;28;20057;-74
2023/08/24 13:51:58;;;;;;;16.00;11.45;;;;;;;;;;5003231;28;20038;-74
2023/08/24 13:54:26;;;;;;;16.00;11.30;;;;;;;;;;4992494;28;20045;-74
2023/08/24 13:56:53;;;;;;;16.48;11.77;;;;;;;;;;4987559;28;20037;-74
2023/08/24 13:59:21;;;;;;;13.10;10.85;;;;;;;;;;4990172;28;20033;-74
2023/08/24 14:01:47;;;;;;;14.10;11.48;;;;;;;;;;4990462;28;20392;-74
2023/08/24 14:04:13;;;;;;;16.13;9.65;;;;;;;;;;4987676;28;20054;-74
2023/08/24 14:06:40;;;;;;;14.98;10.80;;;;;;;;;;4988077;28;20105;-74
2023/08/24 14:09:06;;;;;;;13.57;10.35;;;;;;;;;;4989521;28;20610;-74
2023/08/24 14:11:32;;;;;;;13.13;10.57;;;;;;;;;;4989393;28;20034;-73
2023/08/24 14:13:59;;;;;;;13.40;11.30;;;;;;;;;;4984438;28;20055;-74
2023/08/24 14:16:25;;;;;;;14.82;10.27;;;;;;;;;;4982204;28;20113;-74
2023/08/24 14:18:52;;;;;;;17.05;10.98;;;;;;;;;;4985311;28;20046;-74
2023/08/24 14:21:20;;;;;;;14.45;12.20;;;;;;;;;;4985634;28;20419;-74
2023/08/24 14:23:46;;;;;;;15.50;10.73;;;;;;;;;;4987680;28;20030;-73
2023/08/24 14:26:12;;;;;;;14.18;11.00;;;;;;;;;;4983059;28;20538;-74
2023/08/24 14:29:08;;;;;;;21.00;11.20;;;;;;;;;;4996829;28;20673;-74
2023/08/24 14:31:34;;;;;;;14.50;11.52;;;;;;;;;;4978327;28;20607;-73